Airfield :
LOGIN :

Register | Disclaimer

   EN    FR    IT 

 










Legend :    VFR   Marginal VFR   IFR   Intensive IFR   Very Intensive IFR
Visi :
Ceiling :
>= 8 km
>= 3000ft
5 to 8 km
1000 to 3000 ft
1500m to 5 km
500 to 1000 ft
800 to 1500m
200 to 500 ft
< 800m
< 200 ft
Symbols :   Thunderstorms  Fog  Heavy snow  Heavy precipitations  Wind > 20 kt
SIGMETs :     Misc.  Thunderstorms  Icing  Turbulence  Mountain Waves  Volcanic Ashes







- Airport Elevation : 16 ft
- IATA code : SDR


LEXJ - Santander Cantabria

CURRENT METAR :
  • 210930Z 09008KT 030V120 CAVOK 24/14 Q1017

EXPIRED METARs :
  • 210900Z 09007KT 060V120 CAVOK 24/13 Q1017
  • 210830Z 09008KT 060V140 CAVOK 23/14 Q1017
  • 210800Z 12005KT 080V150 CAVOK 22/13 Q1017
  • 210730Z 10003KT 060V140 CAVOK 21/12 Q1018
  • 210700Z 11004KT 080V140 CAVOK 20/13 Q1018

TAF COR TAF LEXJ
Valid from the 21 at 09:00 until the 22 at 09:00 UTC


210800Z 2109/2209 07015KT CAVOK TX27/2115Z TN18/2205Z
PROB30
TEMPO 2112/2118 07015G25KT
BECMG 2118/2121 09005KT
PROB30
TEMPO 2200/2209 26010KT
No reported NOTAMs for that airfield.



MET'MAP, your aeronautical weather chart ! - Copyright ORBIFLY December 2007 - Disclaimer

ORBIFLY MET'MAP TEAM :

Programming & Development : Alexandra Zaïnal
Concept & Development : Baudouin d'Aumeries
Co-Development & Prog : Marc-Olivier Méhu
Technical & hardware support : Manuel Goepfert

Contact : metmap@orbifly.com




SOURCES & CREDITS :

   NOAA